createdAt,value
2023-04-18T00:00:29.664Z,1.96
2023-04-18T00:03:15.192Z,1.97
2023-04-18T00:06:00.299Z,1.99
2023-04-18T00:08:45.762Z,2.11
2023-04-18T00:11:31.238Z,2.06
2023-04-18T00:14:16.689Z,1.80
2023-04-18T00:17:02.253Z,1.87
2023-04-18T00:19:47.638Z,2.08
2023-04-18T00:22:33.003Z,2.08
2023-04-18T00:25:18.327Z,1.98
2023-04-18T00:28:03.937Z,2.00
2023-04-18T00:30:49.292Z,1.96
2023-04-18T00:33:34.768Z,2.05
2023-04-18T00:36:20.064Z,2.10
2023-04-18T00:39:05.627Z,2.06
2023-04-18T00:41:51.030Z,2.15
2023-04-18T00:44:36.463Z,2.07
2023-04-18T00:47:22.129Z,2.10
2023-04-18T00:50:10.514Z,2.01
2023-04-18T00:52:55.968Z,1.76
2023-04-18T00:55:41.335Z,2.19
2023-04-18T00:58:26.506Z,2.11
2023-04-18T01:01:11.617Z,2.21
2023-04-18T01:03:56.927Z,2.08
2023-04-18T01:06:42.300Z,2.06
2023-04-18T01:09:27.639Z,1.94
2023-04-18T01:12:13.236Z,1.98
2023-04-18T01:14:58.638Z,1.80
2023-04-18T01:17:43.951Z,1.91
2023-04-18T01:20:29.300Z,2.06
2023-04-18T01:23:15.003Z,2.09
2023-04-18T01:26:02.996Z,2.17
2023-04-18T01:28:48.113Z,2.02
2023-04-18T01:31:36.450Z,2.12
2023-04-18T01:34:21.390Z,2.11
2023-04-18T01:37:06.486Z,2.05
2023-04-18T01:39:51.758Z,2.05
2023-04-18T01:42:40.236Z,1.94
2023-04-18T01:45:25.720Z,1.96
2023-04-18T01:48:12.130Z,1.98
2023-04-18T01:50:57.445Z,2.02
2023-04-18T01:53:42.823Z,1.91
2023-04-18T01:56:28.189Z,1.96
2023-04-18T01:59:13.551Z,2.12
2023-04-18T02:01:59.067Z,2.29
2023-04-18T02:04:44.192Z,2.12
2023-04-18T02:07:29.478Z,2.17
2023-04-18T02:10:14.889Z,2.10
2023-04-18T02:13:00.355Z,2.14
2023-04-18T02:15:45.770Z,2.11
2023-04-18T02:18:31.329Z,2.15
2023-04-18T02:21:16.400Z,2.21
2023-04-18T02:24:02.835Z,2.24
2023-04-18T02:26:48.345Z,1.92
2023-04-18T02:29:33.632Z,2.32
2023-04-18T02:32:19.155Z,2.21
2023-04-18T02:35:04.538Z,2.23
2023-04-18T02:37:49.944Z,2.17
2023-04-18T02:40:35.401Z,2.16
2023-04-18T02:43:20.618Z,2.22
2023-04-18T02:46:05.718Z,2.18
2023-04-18T02:48:50.956Z,2.14
2023-04-18T02:51:36.246Z,1.98
2023-04-18T02:54:21.678Z,2.07
2023-04-18T02:57:08.261Z,2.05
2023-04-18T02:59:53.573Z,2.07
2023-04-18T03:02:38.879Z,2.23
2023-04-18T03:05:23.993Z,2.16
2023-04-18T03:08:09.424Z,2.24
2023-04-18T03:10:56.255Z,2.07
2023-04-18T03:13:41.618Z,2.20
2023-04-18T03:16:27.016Z,2.32
2023-04-18T03:19:13.463Z,2.13
2023-04-18T03:21:58.716Z,2.14
2023-04-18T03:24:44.183Z,2.19
2023-04-18T03:27:29.773Z,2.29
2023-04-18T03:30:17.881Z,2.17
2023-04-18T03:33:03.405Z,2.27
2023-04-18T03:35:48.935Z,2.34
2023-04-18T03:38:34.168Z,2.19
2023-04-18T03:41:19.766Z,2.08
2023-04-18T03:44:05.064Z,2.17
2023-04-18T03:46:50.605Z,2.09
2023-04-18T03:49:36.137Z,2.20
2023-04-18T03:52:21.588Z,2.24
2023-04-18T03:55:06.657Z,2.27
2023-04-18T03:57:52.029Z,2.08
2023-04-18T04:00:37.307Z,2.09
2023-04-18T04:03:22.785Z,2.22
2023-04-18T04:06:08.128Z,2.32
2023-04-18T04:08:53.737Z,2.31
2023-04-18T04:11:39.017Z,2.32
2023-04-18T04:14:23.991Z,2.32
2023-04-18T04:17:09.389Z,2.37
2023-04-18T04:19:54.777Z,2.33
2023-04-18T04:22:40.055Z,2.43
2023-04-18T04:25:25.303Z,2.30
2023-04-18T04:28:10.691Z,2.41
2023-04-18T04:30:56.057Z,2.25
2023-04-18T04:33:41.452Z,2.36
2023-04-18T04:36:26.923Z,2.26
2023-04-18T04:39:12.199Z,2.31
2023-04-18T04:41:57.386Z,2.21
2023-04-18T04:44:42.732Z,2.28
2023-04-18T04:47:28.052Z,2.47
2023-04-18T04:50:13.274Z,2.43
2023-04-18T04:52:58.708Z,2.35
2023-04-18T04:55:44.133Z,2.20
2023-04-18T04:58:29.457Z,2.37
2023-04-18T05:01:14.888Z,2.28
2023-04-18T05:04:02.576Z,2.21
2023-04-18T05:06:48.098Z,2.13
2023-04-18T05:09:33.552Z,2.25
2023-04-18T05:12:18.954Z,2.39
2023-04-18T05:15:04.442Z,2.28
2023-04-18T05:17:49.926Z,2.26
2023-04-18T05:20:35.375Z,2.51
2023-04-18T05:23:20.951Z,2.38
2023-04-18T05:26:06.138Z,2.34
2023-04-18T05:28:51.346Z,2.43
2023-04-18T05:31:36.597Z,2.36
2023-04-18T05:34:21.925Z,2.44
2023-04-18T05:37:07.316Z,2.47
2023-04-18T05:39:52.492Z,2.34
2023-04-18T05:42:37.852Z,2.32
2023-04-18T05:45:23.264Z,2.30
2023-04-18T05:48:08.791Z,2.23
2023-04-18T05:50:54.009Z,2.25
2023-04-18T05:53:39.578Z,2.83
2023-04-18T05:56:24.924Z,2.57
2023-04-18T05:59:10.348Z,2.46
2023-04-18T06:01:58.738Z,2.82
2023-04-18T06:04:44.240Z,2.91
2023-04-18T06:07:29.834Z,2.88
2023-04-18T06:10:15.247Z,3.10
2023-04-18T06:13:00.492Z,3.17
2023-04-18T06:15:45.964Z,3.59
2023-04-18T06:18:31.095Z,4.24
2023-04-18T06:21:16.406Z,6.42
2023-04-18T06:24:01.803Z,7.14
2023-04-18T06:26:47.082Z,7.71
2023-04-18T06:29:32.186Z,8.00
2023-04-18T06:32:17.401Z,8.24
2023-04-18T06:35:03.036Z,8.63
2023-04-18T06:37:48.476Z,9.36
2023-04-18T06:40:33.866Z,9.96
2023-04-18T06:43:21.641Z,9.28
2023-04-18T06:46:06.779Z,9.08
2023-04-18T06:48:52.073Z,8.87
2023-04-18T06:51:37.619Z,8.53
2023-04-18T06:54:22.900Z,8.02
2023-04-18T06:57:08.070Z,7.61
2023-04-18T06:59:53.106Z,6.82
2023-04-18T07:02:38.632Z,6.70
2023-04-18T07:05:23.758Z,6.63
2023-04-18T07:08:09.187Z,6.20
2023-04-18T07:10:54.465Z,6.04
2023-04-18T07:13:39.690Z,5.55
2023-04-18T07:16:25.174Z,5.47
2023-04-18T07:19:10.340Z,5.24
2023-04-18T07:21:55.747Z,5.24
2023-04-18T07:24:41.109Z,4.83
2023-04-18T07:27:26.433Z,4.82
2023-04-18T07:30:11.863Z,4.85
2023-04-18T07:32:57.161Z,4.76
2023-04-18T07:35:42.562Z,4.37
2023-04-18T07:38:27.732Z,4.23
2023-04-18T07:41:12.903Z,4.20
2023-04-18T07:44:01.363Z,4.08
2023-04-18T07:46:46.588Z,4.15
2023-04-18T07:49:32.135Z,4.23
2023-04-18T07:52:17.701Z,3.97
2023-04-18T07:55:03.103Z,4.21
2023-04-18T07:57:50.691Z,3.85
2023-04-18T08:00:38.475Z,3.87
2023-04-18T08:03:24.554Z,3.88
2023-04-18T08:06:12.109Z,3.40
2023-04-18T08:08:57.323Z,3.54
2023-04-18T08:11:42.476Z,3.86
2023-04-18T08:14:27.777Z,3.64
2023-04-18T08:17:13.168Z,3.73
2023-04-18T08:19:58.720Z,3.43
2023-04-18T08:22:57.735Z,3.52
2023-04-18T08:25:49.052Z,3.21
2023-04-18T08:28:34.536Z,3.45
2023-04-18T08:31:19.767Z,3.61
2023-04-18T08:34:05.360Z,3.27
2023-04-18T08:36:50.696Z,3.42
2023-04-18T08:39:36.807Z,3.23
2023-04-18T08:42:25.351Z,3.35
2023-04-18T08:45:10.705Z,3.25
2023-04-18T08:47:56.121Z,3.25
2023-04-18T08:50:41.442Z,3.22
2023-04-18T08:53:27.882Z,3.42
2023-04-18T08:56:13.134Z,3.15
2023-04-18T08:58:58.545Z,3.28
2023-04-18T09:01:43.836Z,2.93
2023-04-18T09:04:29.284Z,3.10
2023-04-18T09:07:14.464Z,3.19
2023-04-18T09:10:00.002Z,3.06
2023-04-18T09:12:44.984Z,3.31
2023-04-18T09:15:30.135Z,3.07
2023-04-18T09:18:15.286Z,3.01
2023-04-18T09:21:00.446Z,3.03
2023-04-18T09:23:45.721Z,3.08
2023-04-18T09:26:31.092Z,3.14
2023-04-18T09:29:16.502Z,3.00
2023-04-18T09:32:02.012Z,3.01
2023-04-18T09:34:47.382Z,2.85
2023-04-18T09:37:32.661Z,2.85
2023-04-18T09:40:18.056Z,2.71
2023-04-18T09:43:03.364Z,2.83
2023-04-18T09:45:48.704Z,2.96
2023-04-18T09:48:34.064Z,2.95
2023-04-18T09:51:19.428Z,3.00
2023-04-18T09:54:04.870Z,2.88
2023-04-18T09:56:50.411Z,2.87
2023-04-18T09:59:35.689Z,2.90
2023-04-18T10:02:21.383Z,2.85
2023-04-18T10:05:06.796Z,2.91
2023-04-18T10:07:52.013Z,2.98
2023-04-18T10:10:38.950Z,2.79
2023-04-18T10:13:24.159Z,2.85
2023-04-18T10:16:09.373Z,2.58
2023-04-18T10:18:54.865Z,2.80
2023-04-18T10:21:43.157Z,3.05
2023-04-18T10:24:28.697Z,2.75
2023-04-18T10:27:14.333Z,2.75
2023-04-18T10:29:59.568Z,2.60
2023-04-18T10:32:45.027Z,2.79
2023-04-18T10:35:30.202Z,2.82
2023-04-18T10:38:15.567Z,2.56
2023-04-18T10:41:01.162Z,2.49
2023-04-18T10:43:46.106Z,2.65
2023-04-18T10:46:32.802Z,2.69
2023-04-18T10:49:18.470Z,6.83
2023-04-18T10:52:03.851Z,20.09
2023-04-18T10:54:49.185Z,23.68
2023-04-18T10:57:34.631Z,37.99
2023-04-18T11:00:20.223Z,37.68
2023-04-18T11:03:05.779Z,45.30
2023-04-18T11:05:51.408Z,44.94
2023-04-18T11:08:37.233Z,46.94
2023-04-18T11:11:22.784Z,45.66
2023-04-18T11:14:08.659Z,45.59
2023-04-18T11:16:53.964Z,43.72
2023-04-18T11:19:39.409Z,41.94
2023-04-18T11:22:24.728Z,38.48
2023-04-18T11:25:10.380Z,38.99
2023-04-18T11:27:55.705Z,37.49
2023-04-18T11:30:41.042Z,35.94
2023-04-18T11:33:26.456Z,34.29
2023-04-18T11:36:11.847Z,33.41
2023-04-18T11:38:57.164Z,33.04
2023-04-18T11:41:42.690Z,32.13
2023-04-18T11:44:28.067Z,31.18
2023-04-18T11:47:13.386Z,30.46
2023-04-18T11:49:58.816Z,29.30
2023-04-18T11:52:44.137Z,28.44
2023-04-18T11:55:29.376Z,28.15
2023-04-18T11:58:14.708Z,28.27
2023-04-18T12:00:59.990Z,27.74
2023-04-18T12:03:45.300Z,26.69
2023-04-18T12:06:30.766Z,26.61
2023-04-18T12:09:16.012Z,25.21
2023-04-18T12:12:01.488Z,25.57
2023-04-18T12:14:46.916Z,24.96
2023-04-18T12:17:32.134Z,24.66
2023-04-18T12:20:17.501Z,24.26
2023-04-18T12:23:02.865Z,24.75
2023-04-18T12:25:48.365Z,24.73
2023-04-18T12:28:33.609Z,23.66
2023-04-18T12:31:19.100Z,23.08
2023-04-18T12:34:04.491Z,23.06
2023-04-18T12:36:49.790Z,22.27
2023-04-18T12:39:34.872Z,22.34
2023-04-18T12:42:19.804Z,22.13
2023-04-18T12:45:05.279Z,21.59
2023-04-18T12:47:50.646Z,21.76
2023-04-18T12:50:35.991Z,21.34
2023-04-18T12:53:21.573Z,21.05
2023-04-18T12:56:06.717Z,20.56
2023-04-18T12:58:52.234Z,20.98
2023-04-18T13:01:37.466Z,20.21
2023-04-18T13:04:23.121Z,20.01
2023-04-18T13:07:08.146Z,19.63
2023-04-18T13:09:53.506Z,20.08
2023-04-18T13:12:41.769Z,18.91
2023-04-18T13:15:27.498Z,18.98
2023-04-18T13:18:12.828Z,18.48
2023-04-18T13:20:58.332Z,19.03
2023-04-18T13:23:43.632Z,18.69
2023-04-18T13:26:29.052Z,17.88
2023-04-18T13:29:14.543Z,17.99
2023-04-18T13:31:59.703Z,17.92
2023-04-18T13:34:45.034Z,17.91
2023-04-18T13:37:30.324Z,17.62
2023-04-18T13:40:15.796Z,17.05
2023-04-18T13:43:00.826Z,16.64
2023-04-18T13:45:46.394Z,17.36
2023-04-18T13:48:31.696Z,16.86
2023-04-18T13:51:17.040Z,16.54
2023-04-18T13:54:02.579Z,16.14
2023-04-18T13:56:47.910Z,15.95
2023-04-18T13:59:33.359Z,15.60
2023-04-18T14:02:18.759Z,14.98
2023-04-18T14:05:04.236Z,15.22
2023-04-18T14:07:49.475Z,14.76
2023-04-18T14:10:34.727Z,14.75
2023-04-18T14:13:20.118Z,14.83
2023-04-18T14:16:05.384Z,14.78
2023-04-18T14:18:50.757Z,14.75
2023-04-18T14:21:36.122Z,14.49
2023-04-18T14:24:21.479Z,14.68
2023-04-18T14:27:06.858Z,13.85
2023-04-18T14:29:52.248Z,13.95
2023-04-18T14:32:37.719Z,13.90
2023-04-18T14:35:23.061Z,13.66
2023-04-18T14:38:08.428Z,13.42
2023-04-18T14:40:53.585Z,13.61
2023-04-18T14:43:38.942Z,13.63
2023-04-18T14:46:24.319Z,13.66
2023-04-18T14:49:09.464Z,13.47
2023-04-18T14:51:54.790Z,13.00
2023-04-18T14:54:40.254Z,13.31
2023-04-18T14:57:26.601Z,12.75
2023-04-18T15:00:11.620Z,12.31
2023-04-18T15:02:56.893Z,13.26
2023-04-18T15:05:42.321Z,13.01
2023-04-18T15:08:27.760Z,12.96
2023-04-18T15:11:13.330Z,12.83
2023-04-18T15:13:58.907Z,12.63
2023-04-18T15:16:44.264Z,12.49
2023-04-18T15:19:29.634Z,11.95
2023-04-18T15:22:14.995Z,12.20
2023-04-18T15:25:00.215Z,12.11
2023-04-18T15:27:45.596Z,11.92
2023-04-18T15:30:30.846Z,11.86
2023-04-18T15:33:16.139Z,11.43
2023-04-18T15:36:01.438Z,11.63
2023-04-18T15:38:46.583Z,11.46
2023-04-18T15:41:34.881Z,11.12
2023-04-18T15:44:21.210Z,12.18
2023-04-18T15:47:06.656Z,11.51
2023-04-18T15:49:52.336Z,11.41
2023-04-18T15:52:37.564Z,10.83
2023-04-18T15:55:22.774Z,11.78
2023-04-18T15:58:08.053Z,11.08
2023-04-18T16:00:53.441Z,10.81
2023-04-18T16:03:38.797Z,10.99
2023-04-18T16:06:23.923Z,11.06
2023-04-18T16:09:11.747Z,10.89
2023-04-18T16:11:56.760Z,10.70
2023-04-18T16:14:41.895Z,10.88
2023-04-18T16:17:27.208Z,10.65
2023-04-18T16:20:12.431Z,10.86
2023-04-18T16:22:57.982Z,10.86
2023-04-18T16:25:43.380Z,10.20
2023-04-18T16:28:28.853Z,10.27
2023-04-18T16:31:13.911Z,10.56
2023-04-18T16:33:59.326Z,10.24
2023-04-18T16:36:44.550Z,10.14
2023-04-18T16:39:29.680Z,11.00
2023-04-18T16:42:15.886Z,11.15
2023-04-18T16:45:02.120Z,10.42
2023-04-18T16:47:47.693Z,10.24
2023-04-18T16:50:33.210Z,11.01
2023-04-18T16:53:18.421Z,10.62
2023-04-18T16:56:03.749Z,10.75
2023-04-18T16:58:49.058Z,10.83
2023-04-18T17:01:34.700Z,10.72
2023-04-18T17:04:20.156Z,10.68
2023-04-18T17:07:05.457Z,10.85
2023-04-18T17:09:50.765Z,11.96
2023-04-18T17:12:36.106Z,10.73
2023-04-18T17:15:21.425Z,9.76
2023-04-18T17:18:06.859Z,9.69
2023-04-18T17:20:52.347Z,11.12
2023-04-18T17:23:37.988Z,12.79
2023-04-18T17:26:26.113Z,10.72
2023-04-18T17:29:11.387Z,10.11
2023-04-18T17:31:56.802Z,10.06
2023-04-18T17:34:42.150Z,10.32
2023-04-18T17:37:27.560Z,10.54
2023-04-18T17:40:12.601Z,10.05
2023-04-18T17:42:57.997Z,9.82
2023-04-18T17:45:43.493Z,10.45
2023-04-18T17:48:28.731Z,10.28
2023-04-18T17:51:14.313Z,10.43
2023-04-18T17:53:59.590Z,10.60
2023-04-18T17:56:45.042Z,10.54
2023-04-18T17:59:30.433Z,10.48
2023-04-18T18:02:15.834Z,10.37
2023-04-18T18:05:01.218Z,10.11
2023-04-18T18:07:46.499Z,9.75
2023-04-18T18:10:32.006Z,9.49
2023-04-18T18:13:17.472Z,9.83
2023-04-18T18:16:02.771Z,10.58
2023-04-18T18:18:48.050Z,10.86
2023-04-18T18:21:33.505Z,11.17
2023-04-18T18:24:18.904Z,9.98
2023-04-18T18:27:04.005Z,10.59
2023-04-18T18:29:49.515Z,9.76
2023-04-18T18:32:38.153Z,8.93
2023-04-18T18:35:23.461Z,8.70
2023-04-18T18:38:08.298Z,8.49
2023-04-18T18:40:54.416Z,8.77
2023-04-18T18:43:40.116Z,8.74
2023-04-18T18:46:25.495Z,9.15
2023-04-18T18:49:10.737Z,8.66
2023-04-18T18:51:56.295Z,8.44
2023-04-18T18:54:41.610Z,8.74
2023-04-18T18:57:27.060Z,8.55
2023-04-18T19:00:12.436Z,8.99
2023-04-18T19:02:57.984Z,8.93
2023-04-18T19:05:43.371Z,8.84
2023-04-18T19:08:28.718Z,8.65
2023-04-18T19:11:17.084Z,8.71
2023-04-18T19:14:02.376Z,8.60
2023-04-18T19:16:47.801Z,8.66
2023-04-18T19:19:33.386Z,8.18
2023-04-18T19:22:18.386Z,8.20
2023-04-18T19:25:03.757Z,8.24
2023-04-18T19:27:49.516Z,8.26
2023-04-18T19:30:34.802Z,8.35
2023-04-18T19:33:20.306Z,8.10
2023-04-18T19:36:05.550Z,8.36
2023-04-18T19:38:51.119Z,8.08
2023-04-18T19:41:36.632Z,11.51
2023-04-18T19:44:21.707Z,11.32
2023-04-18T19:47:07.083Z,9.86
2023-04-18T19:49:52.375Z,9.41
2023-04-18T19:52:37.560Z,9.22
2023-04-18T19:55:22.787Z,9.05
2023-04-18T19:58:08.086Z,9.25
2023-04-18T20:00:53.236Z,8.89
2023-04-18T20:03:38.869Z,9.07
2023-04-18T20:06:24.829Z,8.94
2023-04-18T20:09:10.058Z,8.74
2023-04-18T20:11:55.438Z,8.74
2023-04-18T20:14:40.932Z,8.20
2023-04-18T20:17:26.474Z,8.67
2023-04-18T20:20:11.757Z,8.99
2023-04-18T20:22:57.200Z,8.78
2023-04-18T20:25:42.780Z,8.49
2023-04-18T20:28:28.155Z,8.46
2023-04-18T20:31:13.534Z,8.40
2023-04-18T20:33:58.863Z,8.80
2023-04-18T20:36:44.403Z,8.56
2023-04-18T20:39:29.699Z,7.97
2023-04-18T20:42:14.957Z,8.21
2023-04-18T20:45:00.387Z,8.35
2023-04-18T20:47:45.887Z,8.17
2023-04-18T20:50:31.280Z,8.25
2023-04-18T20:53:16.650Z,8.26
2023-04-18T20:56:01.759Z,8.11
2023-04-18T20:58:46.992Z,8.36
2023-04-18T21:01:32.436Z,7.85
2023-04-18T21:04:18.043Z,7.76
2023-04-18T21:07:03.238Z,7.75
2023-04-18T21:09:48.563Z,7.79
2023-04-18T21:12:33.990Z,7.78
2023-04-18T21:15:19.363Z,7.96
2023-04-18T21:18:04.745Z,7.83
2023-04-18T21:20:50.156Z,7.70
2023-04-18T21:23:37.333Z,7.80
2023-04-18T21:26:22.572Z,7.70
2023-04-18T21:29:07.788Z,7.64
2023-04-18T21:31:53.231Z,7.98
2023-04-18T21:34:38.723Z,7.50
2023-04-18T21:37:24.096Z,7.42
2023-04-18T21:40:09.348Z,7.55
2023-04-18T21:42:54.739Z,7.39
2023-04-18T21:45:40.163Z,7.58
2023-04-18T21:48:25.537Z,7.61
2023-04-18T21:51:10.822Z,7.49
2023-04-18T21:53:56.219Z,7.70
2023-04-18T21:56:41.541Z,7.29
2023-04-18T21:59:27.008Z,7.38
2023-04-18T22:02:12.326Z,7.13
2023-04-18T22:04:57.816Z,7.23
2023-04-18T22:07:50.500Z,6.99
2023-04-18T22:10:40.343Z,7.63
2023-04-18T22:13:25.724Z,7.27
2023-04-18T22:16:11.180Z,7.42
2023-04-18T22:18:56.709Z,7.43
2023-04-18T22:21:42.028Z,7.35
2023-04-18T22:24:27.255Z,7.55
2023-04-18T22:27:12.664Z,7.11
2023-04-18T22:29:57.711Z,7.25
2023-04-18T22:32:43.188Z,6.88
2023-04-18T22:35:28.678Z,6.71
2023-04-18T22:38:13.950Z,7.05
2023-04-18T22:40:59.154Z,7.12
2023-04-18T22:43:44.294Z,6.83
2023-04-18T22:46:29.522Z,6.92
2023-04-18T22:49:14.676Z,6.87
2023-04-18T22:52:00.160Z,6.86
2023-04-18T22:54:45.546Z,7.01
2023-04-18T22:57:31.031Z,7.42
2023-04-18T23:00:16.213Z,7.10
2023-04-18T23:03:01.571Z,6.66
2023-04-18T23:05:46.917Z,7.04
2023-04-18T23:08:32.083Z,6.86
2023-04-18T23:11:17.421Z,6.88
2023-04-18T23:14:02.759Z,7.05
2023-04-18T23:16:48.048Z,7.01
2023-04-18T23:19:33.541Z,6.75
2023-04-18T23:22:18.747Z,6.65
2023-04-18T23:25:04.071Z,6.71
2023-04-18T23:27:48.942Z,6.62
2023-04-18T23:30:34.516Z,6.62
2023-04-18T23:33:19.615Z,6.45
2023-04-18T23:36:05.196Z,6.71
2023-04-18T23:38:50.361Z,6.45
2023-04-18T23:41:35.354Z,6.66
2023-04-18T23:44:20.820Z,6.82
2023-04-18T23:47:06.279Z,6.70
2023-04-18T23:49:51.424Z,6.67
2023-04-18T23:52:36.699Z,6.19
2023-04-18T23:55:21.836Z,6.29
2023-04-18T23:58:07.384Z,6.76
